createdAt,value
2022-08-20T00:00:53.347Z,17.39
2022-08-20T00:03:32.307Z,17.24
2022-08-20T00:06:10.014Z,17.19
2022-08-20T00:08:37.562Z,17.08
2022-08-20T00:11:07.435Z,17.18
2022-08-20T00:13:41.340Z,17.20
2022-08-20T00:16:09.197Z,17.28
2022-08-20T00:18:39.271Z,17.37
2022-08-20T00:21:09.033Z,17.63
2022-08-20T00:23:41.307Z,17.54
2022-08-20T00:26:10.198Z,17.45
2022-08-20T00:28:38.267Z,17.51
2022-08-20T00:31:09.329Z,17.43
2022-08-20T00:33:37.162Z,17.35
2022-08-20T00:36:07.101Z,17.27
2022-08-20T00:38:35.004Z,17.34
2022-08-20T00:41:02.554Z,17.42
2022-08-20T00:43:41.191Z,17.29
2022-08-20T00:46:21.317Z,17.28
2022-08-20T00:48:51.234Z,17.40
2022-08-20T00:51:39.066Z,17.17
2022-08-20T00:54:20.673Z,16.94
2022-08-20T00:56:52.646Z,17.17
2022-08-20T00:59:23.089Z,17.20
2022-08-20T01:01:55.604Z,17.34
2022-08-20T01:04:24.946Z,17.20
2022-08-20T01:06:51.975Z,17.27
2022-08-20T01:09:33.336Z,17.16
2022-08-20T01:12:07.704Z,17.22
2022-08-20T01:14:34.624Z,16.96
2022-08-20T01:17:06.203Z,17.18
2022-08-20T01:19:43.158Z,17.19
2022-08-20T01:22:30.646Z,17.23
2022-08-20T01:25:27.043Z,17.40
2022-08-20T01:27:56.021Z,17.44
2022-08-20T01:30:27.295Z,17.07
2022-08-20T01:32:54.153Z,17.08
2022-08-20T01:35:22.558Z,16.86
2022-08-20T01:37:49.353Z,16.87
2022-08-20T01:40:27.902Z,17.12
2022-08-20T01:42:59.621Z,17.11
2022-08-20T01:45:29.217Z,17.21
2022-08-20T01:47:58.093Z,17.34
2022-08-20T01:50:28.526Z,17.48
2022-08-20T01:53:06.568Z,17.46
2022-08-20T01:55:33.302Z,17.51
2022-08-20T01:58:01.453Z,17.24
2022-08-20T02:00:28.571Z,17.14
2022-08-20T02:02:55.238Z,17.17
2022-08-20T02:05:22.828Z,17.03
2022-08-20T02:07:50.405Z,16.96
2022-08-20T02:10:18.625Z,16.94
2022-08-20T02:12:45.358Z,16.86
2022-08-20T02:15:13.335Z,17.03
2022-08-20T02:17:41.855Z,16.96
2022-08-20T02:20:20.455Z,16.83
2022-08-20T02:22:49.271Z,16.70
2022-08-20T02:25:19.322Z,16.78
2022-08-20T02:27:48.803Z,16.82
2022-08-20T02:30:27.510Z,16.74
2022-08-20T02:32:56.836Z,16.82
2022-08-20T02:35:25.420Z,16.86
2022-08-20T02:37:53.191Z,16.88
2022-08-20T02:40:30.611Z,16.88
2022-08-20T02:43:02.445Z,16.93
2022-08-20T02:45:31.597Z,16.90
2022-08-20T02:47:59.352Z,16.98
2022-08-20T02:50:26.949Z,16.96
2022-08-20T02:52:54.047Z,17.13
2022-08-20T02:55:27.365Z,16.98
2022-08-20T02:57:57.933Z,17.08
2022-08-20T03:00:27.512Z,17.03
2022-08-20T03:02:54.206Z,17.08
2022-08-20T03:05:20.924Z,17.05
2022-08-20T03:07:59.881Z,17.13
2022-08-20T03:10:30.282Z,17.10
2022-08-20T03:12:56.920Z,17.07
2022-08-20T03:15:23.997Z,17.21
2022-08-20T03:17:50.881Z,17.17
2022-08-20T03:20:17.622Z,17.28
2022-08-20T03:22:50.500Z,17.21
2022-08-20T03:25:18.242Z,17.29
2022-08-20T03:27:45.610Z,17.29
2022-08-20T03:30:15.247Z,17.32
2022-08-20T03:32:42.771Z,17.32
2022-08-20T03:35:13.026Z,17.42
2022-08-20T03:37:40.446Z,17.45
2022-08-20T03:40:22.037Z,17.52
2022-08-20T03:42:48.762Z,17.36
2022-08-20T03:45:19.903Z,17.28
2022-08-20T03:47:48.003Z,17.40
2022-08-20T03:50:22.644Z,17.37
2022-08-20T03:52:54.127Z,17.28
2022-08-20T03:55:22.319Z,17.36
2022-08-20T03:57:55.537Z,17.34
2022-08-20T04:00:24.209Z,17.37
2022-08-20T04:02:50.934Z,17.29
2022-08-20T04:05:17.699Z,17.22
2022-08-20T04:07:44.841Z,17.23
2022-08-20T04:10:13.041Z,17.05
2022-08-20T04:12:48.748Z,17.10
2022-08-20T04:15:21.238Z,17.11
2022-08-20T04:17:50.378Z,16.98
2022-08-20T04:20:23.174Z,16.70
2022-08-20T04:22:58.622Z,16.73
2022-08-20T04:25:35.849Z,16.54
2022-08-20T04:28:05.987Z,16.48
2022-08-20T04:30:33.402Z,16.51
2022-08-20T04:33:00.830Z,16.56
2022-08-20T04:35:28.289Z,16.54
2022-08-20T04:38:06.746Z,16.38
2022-08-20T04:40:53.523Z,16.40
2022-08-20T04:43:23.258Z,16.50
2022-08-20T04:45:52.019Z,16.47
2022-08-20T04:48:20.257Z,16.56
2022-08-20T04:50:47.315Z,16.56
2022-08-20T04:53:23.954Z,16.68
2022-08-20T04:55:54.503Z,16.65
2022-08-20T04:58:33.807Z,16.62
2022-08-20T05:01:04.224Z,16.77
2022-08-20T05:03:32.120Z,16.81
2022-08-20T05:05:59.078Z,17.04
2022-08-20T05:08:26.526Z,17.16
2022-08-20T05:10:56.119Z,17.55
2022-08-20T05:13:33.888Z,17.43
2022-08-20T05:16:02.010Z,17.73
2022-08-20T05:18:32.668Z,17.78
2022-08-20T05:21:05.708Z,17.55
2022-08-20T05:23:42.819Z,17.33
2022-08-20T05:26:11.442Z,17.74
2022-08-20T05:28:53.965Z,17.76
2022-08-20T05:31:31.977Z,17.61
2022-08-20T05:34:12.174Z,17.52
2022-08-20T05:36:41.833Z,17.49
2022-08-20T05:39:10.062Z,17.58
2022-08-20T05:41:38.486Z,17.76
2022-08-20T05:44:05.523Z,17.58
2022-08-20T05:46:32.372Z,17.51
2022-08-20T05:49:01.747Z,17.70
2022-08-20T05:51:29.363Z,17.43
2022-08-20T05:53:57.955Z,17.33
2022-08-20T05:56:27.256Z,17.62
2022-08-20T05:58:54.211Z,17.30
2022-08-20T06:01:20.950Z,17.59
2022-08-20T06:04:06.305Z,17.32
2022-08-20T06:06:44.472Z,17.35
2022-08-20T06:09:15.195Z,17.41
2022-08-20T06:11:41.851Z,17.43
2022-08-20T06:14:08.565Z,17.41
2022-08-20T06:16:37.081Z,17.21
2022-08-20T06:19:05.579Z,17.38
2022-08-20T06:21:32.522Z,17.24
2022-08-20T06:24:01.671Z,17.43
2022-08-20T06:26:30.451Z,17.48
2022-08-20T06:29:05.655Z,17.46
2022-08-20T06:31:32.729Z,17.49
2022-08-20T06:33:59.424Z,17.50
2022-08-20T06:36:27.472Z,17.43
2022-08-20T06:38:56.160Z,17.65
2022-08-20T06:41:22.827Z,17.64
2022-08-20T06:44:02.752Z,17.46
2022-08-20T06:46:29.545Z,17.58
2022-08-20T06:48:56.163Z,17.88
2022-08-20T06:51:23.185Z,17.98
2022-08-20T06:53:49.921Z,17.61
2022-08-20T06:56:16.679Z,18.00
2022-08-20T06:58:43.955Z,18.41
2022-08-20T07:01:12.515Z,18.11
2022-08-20T07:03:54.521Z,17.95
2022-08-20T07:06:25.007Z,18.36
2022-08-20T07:08:51.838Z,18.64
2022-08-20T07:11:18.512Z,18.53
2022-08-20T07:13:45.479Z,18.63
2022-08-20T07:16:12.452Z,18.92
2022-08-20T07:18:39.136Z,18.86
2022-08-20T07:21:06.032Z,18.82
2022-08-20T07:23:33.207Z,18.61
2022-08-20T07:26:00.106Z,19.12
2022-08-20T07:28:32.436Z,18.91
2022-08-20T07:31:17.936Z,19.43
2022-08-20T07:33:47.264Z,19.60
2022-08-20T07:36:17.696Z,19.42
2022-08-20T07:38:50.876Z,19.65
2022-08-20T07:41:17.486Z,19.36
2022-08-20T07:43:45.771Z,19.44
2022-08-20T07:46:20.812Z,19.51
2022-08-20T07:48:50.212Z,19.64
2022-08-20T07:51:22.381Z,19.71
2022-08-20T07:53:51.699Z,19.77
2022-08-20T07:56:24.388Z,19.89
2022-08-20T07:58:55.240Z,20.18
2022-08-20T08:01:30.382Z,19.89
2022-08-20T08:03:59.457Z,19.81
2022-08-20T08:06:29.486Z,19.96
2022-08-20T08:09:01.088Z,20.62
2022-08-20T08:11:27.864Z,20.23
2022-08-20T08:13:54.658Z,19.93
2022-08-20T08:16:21.903Z,20.07
2022-08-20T08:18:52.171Z,20.21
2022-08-20T08:21:19.415Z,20.51
2022-08-20T08:23:46.089Z,21.34
2022-08-20T08:26:16.344Z,20.54
2022-08-20T08:28:46.233Z,20.92
2022-08-20T08:31:14.374Z,21.05
2022-08-20T08:33:41.862Z,21.09
2022-08-20T08:36:12.431Z,21.15
2022-08-20T08:38:42.891Z,20.32
2022-08-20T08:41:21.848Z,20.45
2022-08-20T08:43:53.224Z,21.10
2022-08-20T08:46:26.099Z,21.30
2022-08-20T08:48:56.488Z,21.68
2022-08-20T08:51:56.691Z,21.81
2022-08-20T08:54:27.485Z,20.89
2022-08-20T08:56:54.687Z,21.75
2022-08-20T08:59:23.152Z,21.92
2022-08-20T09:01:57.261Z,21.43
2022-08-20T09:04:36.110Z,21.62
2022-08-20T09:07:07.027Z,21.73
2022-08-20T09:09:41.522Z,21.76
2022-08-20T09:12:14.131Z,21.37
2022-08-20T09:14:41.295Z,21.94
2022-08-20T09:17:07.979Z,21.79
2022-08-20T09:19:34.619Z,22.07
2022-08-20T09:22:08.712Z,23.06
2022-08-20T09:24:35.502Z,22.47
2022-08-20T09:27:02.180Z,22.11
2022-08-20T09:29:29.467Z,21.99
2022-08-20T09:32:10.422Z,21.72
2022-08-20T09:34:42.807Z,22.04
2022-08-20T09:37:09.905Z,21.97
2022-08-20T09:39:36.841Z,22.03
2022-08-20T09:42:13.496Z,21.97
2022-08-20T09:44:40.701Z,22.36
2022-08-20T09:47:07.732Z,22.70
2022-08-20T09:49:34.617Z,22.24
2022-08-20T09:52:01.630Z,22.91
2022-08-20T09:54:30.180Z,22.34
2022-08-20T09:57:06.637Z,23.36
2022-08-20T09:59:35.130Z,22.26
2022-08-20T10:02:02.071Z,23.13
2022-08-20T10:04:28.875Z,23.07
2022-08-20T10:06:56.558Z,22.38
2022-08-20T10:09:23.468Z,22.47
2022-08-20T10:11:51.482Z,22.75
2022-08-20T10:14:18.119Z,22.40
2022-08-20T10:16:44.818Z,22.56
2022-08-20T10:19:11.513Z,22.83
2022-08-20T10:21:39.244Z,22.89
2022-08-20T10:24:06.314Z,23.25
2022-08-20T10:26:33.063Z,23.49
2022-08-20T10:28:59.738Z,23.91
2022-08-20T10:31:26.470Z,23.55
2022-08-20T10:33:53.142Z,22.42
2022-08-20T10:36:20.076Z,22.83
2022-08-20T10:38:48.533Z,22.74
2022-08-20T10:41:15.314Z,22.98
2022-08-20T10:43:41.987Z,23.12
2022-08-20T10:46:09.403Z,22.53
2022-08-20T10:48:36.130Z,22.74
2022-08-20T10:51:02.908Z,23.12
2022-08-20T10:53:29.704Z,22.38
2022-08-20T10:55:57.888Z,22.65
2022-08-20T10:58:26.069Z,22.87
2022-08-20T11:01:02.321Z,22.36
2022-08-20T11:03:29.065Z,22.94
2022-08-20T11:05:55.740Z,23.19
2022-08-20T11:08:33.758Z,22.71
2022-08-20T11:11:01.269Z,22.34
2022-08-20T11:13:27.926Z,21.75
2022-08-20T11:15:54.608Z,22.69
2022-08-20T11:18:21.390Z,22.24
2022-08-20T11:20:48.040Z,22.34
2022-08-20T11:23:14.766Z,22.48
2022-08-20T11:25:41.383Z,21.94
2022-08-20T11:28:08.118Z,22.46
2022-08-20T11:30:36.794Z,22.69
2022-08-20T11:33:04.300Z,22.32
2022-08-20T11:35:50.138Z,22.43
2022-08-20T11:38:18.333Z,22.24
2022-08-20T11:40:46.873Z,22.88
2022-08-20T11:43:16.205Z,22.74
2022-08-20T11:45:49.678Z,23.31
2022-08-20T11:48:16.965Z,23.08
2022-08-20T11:50:43.667Z,22.92
2022-08-20T11:53:10.371Z,22.90
2022-08-20T11:55:38.705Z,23.51
2022-08-20T11:58:06.220Z,23.00
2022-08-20T12:00:34.088Z,23.40
2022-08-20T12:03:02.183Z,23.13
2022-08-20T12:05:32.203Z,23.37
2022-08-20T12:08:01.368Z,22.99
2022-08-20T12:10:29.291Z,22.85
2022-08-20T12:12:56.782Z,22.68
2022-08-20T12:15:25.311Z,22.67
2022-08-20T12:17:52.370Z,23.14
2022-08-20T12:20:19.472Z,23.08
2022-08-20T12:22:46.171Z,22.86
2022-08-20T12:25:13.377Z,23.10
2022-08-20T12:27:41.490Z,22.48
2022-08-20T12:30:14.245Z,22.86
2022-08-20T12:32:42.297Z,22.43
2022-08-20T12:35:11.329Z,22.19
2022-08-20T12:37:38.386Z,22.29
2022-08-20T12:40:08.818Z,22.25
2022-08-20T12:42:35.930Z,22.40
2022-08-20T12:45:04.226Z,22.17
2022-08-20T12:47:37.264Z,22.29
2022-08-20T12:50:05.905Z,21.99
2022-08-20T12:52:33.543Z,21.94
2022-08-20T12:55:00.843Z,22.23
2022-08-20T12:57:35.579Z,22.03
2022-08-20T13:00:08.618Z,22.28
2022-08-20T13:02:35.225Z,22.11
2022-08-20T13:05:04.931Z,22.89
2022-08-20T13:07:32.814Z,22.76
2022-08-20T13:10:00.451Z,23.21
2022-08-20T13:12:27.627Z,22.80
2022-08-20T13:14:54.346Z,22.97
2022-08-20T13:17:33.659Z,23.42
2022-08-20T13:20:08.787Z,22.51
2022-08-20T13:22:36.067Z,23.11
2022-08-20T13:25:03.246Z,22.86
2022-08-20T13:27:29.964Z,22.17
2022-08-20T13:29:58.927Z,22.65
2022-08-20T13:32:26.320Z,22.20
2022-08-20T13:34:53.150Z,22.10
2022-08-20T13:37:25.558Z,22.10
2022-08-20T13:39:53.530Z,21.96
2022-08-20T13:42:20.368Z,21.78
2022-08-20T13:44:48.088Z,21.75
2022-08-20T13:47:20.996Z,21.87
2022-08-20T13:49:49.115Z,21.97
2022-08-20T13:52:16.992Z,21.98
2022-08-20T13:54:43.867Z,21.51
2022-08-20T13:57:14.933Z,21.59
2022-08-20T13:59:48.312Z,21.42
2022-08-20T14:02:16.008Z,21.76
2022-08-20T14:04:42.799Z,21.77
2022-08-20T14:07:27.723Z,21.29
2022-08-20T14:10:03.642Z,21.16
2022-08-20T14:12:30.860Z,21.07
2022-08-20T14:14:58.252Z,21.02
2022-08-20T14:17:37.113Z,20.67
2022-08-20T14:20:10.810Z,20.74
2022-08-20T14:22:37.764Z,20.61
2022-08-20T14:25:09.284Z,20.63
2022-08-20T14:27:36.230Z,20.51
2022-08-20T14:30:06.408Z,20.51
2022-08-20T14:32:33.070Z,20.12
2022-08-20T14:35:00.559Z,20.13
2022-08-20T14:37:32.944Z,19.97
2022-08-20T14:40:01.716Z,19.59
2022-08-20T14:42:29.578Z,19.41
2022-08-20T14:44:57.385Z,19.34
2022-08-20T14:47:30.342Z,19.04
2022-08-20T14:50:02.728Z,18.75
2022-08-20T14:52:33.819Z,18.56
2022-08-20T14:55:00.521Z,18.74
2022-08-20T14:57:27.715Z,18.53
2022-08-20T14:59:54.467Z,18.53
2022-08-20T15:02:22.273Z,18.09
2022-08-20T15:04:53.915Z,18.04
2022-08-20T15:07:33.743Z,18.18
2022-08-20T15:10:02.265Z,18.42
2022-08-20T15:12:29.329Z,18.12
2022-08-20T15:14:56.137Z,18.24
2022-08-20T15:17:29.336Z,18.31
2022-08-20T15:19:56.469Z,18.11
2022-08-20T15:22:25.731Z,18.37
2022-08-20T15:24:57.614Z,18.35
2022-08-20T15:27:26.023Z,18.31
2022-08-20T15:29:53.585Z,18.53
2022-08-20T15:32:21.687Z,18.53
2022-08-20T15:34:49.062Z,18.58
2022-08-20T15:37:21.790Z,18.54
2022-08-20T15:39:49.759Z,18.46
2022-08-20T15:42:17.639Z,18.52
2022-08-20T15:44:45.632Z,18.41
2022-08-20T15:47:12.269Z,18.44
2022-08-20T15:49:39.063Z,18.35
2022-08-20T15:52:05.866Z,18.22
2022-08-20T15:54:32.632Z,18.39
2022-08-20T15:57:02.550Z,18.33
2022-08-20T15:59:44.226Z,18.14
2022-08-20T16:02:35.690Z,18.22
2022-08-20T16:05:18.362Z,18.33
2022-08-20T16:07:58.616Z,18.32
2022-08-20T16:10:37.043Z,18.18
2022-08-20T16:13:09.964Z,18.09
2022-08-20T16:15:45.214Z,18.05
2022-08-20T16:18:21.957Z,18.05
2022-08-20T16:20:51.594Z,18.03
2022-08-20T16:23:22.666Z,18.07
2022-08-20T16:26:04.582Z,17.88
2022-08-20T16:29:06.466Z,17.82
2022-08-20T16:31:49.628Z,17.97
2022-08-20T16:34:32.911Z,17.99
2022-08-20T16:37:10.258Z,17.92
2022-08-20T16:40:09.938Z,17.79
2022-08-20T16:42:40.228Z,17.78
2022-08-20T16:45:21.970Z,17.82
2022-08-20T16:47:50.808Z,17.78
2022-08-20T16:50:23.541Z,17.73
2022-08-20T16:52:54.305Z,17.59
2022-08-20T16:55:23.819Z,17.62
2022-08-20T16:57:52.922Z,17.57
2022-08-20T17:00:35.671Z,17.49
2022-08-20T17:03:31.432Z,17.45
2022-08-20T17:06:36.915Z,17.45
2022-08-20T17:09:21.519Z,17.40
2022-08-20T17:11:48.347Z,17.42
2022-08-20T17:14:17.745Z,17.47
2022-08-20T17:16:47.519Z,17.32
2022-08-20T17:19:40.515Z,17.50
2022-08-20T17:22:10.240Z,17.44
2022-08-20T17:24:37.977Z,17.49
2022-08-20T17:27:10.239Z,17.46
2022-08-20T17:29:51.226Z,17.57
2022-08-20T17:32:26.876Z,17.40
2022-08-20T17:34:57.275Z,17.45
2022-08-20T17:37:33.521Z,17.36
2022-08-20T17:40:15.194Z,17.41
2022-08-20T17:42:52.763Z,17.45
2022-08-20T17:45:26.122Z,17.34
2022-08-20T17:47:53.733Z,17.39
2022-08-20T17:50:25.619Z,17.25
2022-08-20T17:53:01.025Z,17.30
2022-08-20T17:55:31.302Z,17.36
2022-08-20T17:58:02.765Z,17.26
2022-08-20T18:00:29.660Z,17.39
2022-08-20T18:03:21.623Z,17.42
2022-08-20T18:06:03.765Z,17.23
2022-08-20T18:08:39.647Z,17.29
2022-08-20T18:11:12.314Z,17.30
2022-08-20T18:13:54.162Z,17.16
2022-08-20T18:16:28.880Z,17.15
2022-08-20T18:19:21.305Z,17.07
2022-08-20T18:22:11.835Z,17.19
2022-08-20T18:24:58.557Z,17.09
2022-08-20T18:27:37.687Z,17.14
2022-08-20T18:30:13.173Z,17.08
2022-08-20T18:32:39.963Z,17.19
2022-08-20T18:35:35.842Z,17.11
2022-08-20T18:38:21.345Z,17.12
2022-08-20T18:40:50.047Z,17.13
2022-08-20T18:43:30.240Z,17.18
2022-08-20T18:46:22.048Z,17.06
2022-08-20T18:49:08.571Z,17.00
2022-08-20T18:51:50.621Z,16.95
2022-08-20T18:54:36.284Z,17.00
2022-08-20T18:57:17.486Z,17.02
2022-08-20T18:59:50.761Z,17.08
2022-08-20T19:02:25.250Z,16.87
2022-08-20T19:05:02.716Z,16.83
2022-08-20T19:07:48.493Z,16.88
2022-08-20T19:10:41.367Z,16.77
2022-08-20T19:13:16.083Z,16.73
2022-08-20T19:15:50.819Z,16.73
2022-08-20T19:18:32.580Z,16.66
2022-08-20T19:21:02.330Z,16.74
2022-08-20T19:23:33.230Z,16.82
2022-08-20T19:26:27.834Z,16.56
2022-08-20T19:29:02.795Z,16.35
2022-08-20T19:31:32.567Z,16.54
2022-08-20T19:34:19.781Z,16.62
2022-08-20T19:37:08.971Z,16.37
2022-08-20T19:39:47.713Z,16.53
2022-08-20T19:42:20.489Z,16.52
2022-08-20T19:45:07.791Z,16.35
2022-08-20T19:47:49.323Z,16.48
2022-08-20T19:50:26.462Z,16.47
2022-08-20T19:53:02.410Z,16.44
2022-08-20T19:55:32.695Z,16.39
2022-08-20T19:58:02.679Z,16.32
2022-08-20T20:00:39.003Z,16.42
2022-08-20T20:03:15.945Z,16.28
2022-08-20T20:06:15.213Z,16.31
2022-08-20T20:08:44.890Z,16.13
2022-08-20T20:11:19.035Z,16.32
2022-08-20T20:13:46.418Z,16.21
2022-08-20T20:16:17.934Z,16.32
2022-08-20T20:18:45.109Z,15.92
2022-08-20T20:21:25.667Z,16.11
2022-08-20T20:23:56.488Z,16.28
2022-08-20T20:26:24.560Z,16.27
2022-08-20T20:29:02.428Z,16.21
2022-08-20T20:31:32.346Z,16.00
2022-08-20T20:34:06.449Z,15.94
2022-08-20T20:36:38.317Z,15.85
2022-08-20T20:39:12.552Z,15.77
2022-08-20T20:41:53.042Z,15.85
2022-08-20T20:44:37.260Z,15.88
2022-08-20T20:47:07.896Z,15.76
2022-08-20T20:49:55.257Z,15.77
2022-08-20T20:52:25.249Z,15.73
2022-08-20T20:55:03.903Z,15.62
2022-08-20T20:57:38.411Z,15.74
2022-08-20T21:00:17.474Z,15.62
2022-08-20T21:02:45.367Z,15.54
2022-08-20T21:05:14.653Z,15.55
2022-08-20T21:07:45.464Z,15.45
2022-08-20T21:10:20.402Z,15.71
2022-08-20T21:12:52.469Z,15.76
2022-08-20T21:15:20.984Z,15.49
2022-08-20T21:17:47.990Z,15.44
2022-08-20T21:20:14.979Z,15.53
2022-08-20T21:22:41.694Z,15.65
2022-08-20T21:25:08.625Z,15.56
2022-08-20T21:27:35.849Z,15.52
2022-08-20T21:30:04.649Z,15.49
2022-08-20T21:32:31.340Z,15.51
2022-08-20T21:34:58.000Z,15.46
2022-08-20T21:37:24.684Z,15.41
2022-08-20T21:39:51.423Z,15.43
2022-08-20T21:42:28.609Z,15.52
2022-08-20T21:44:57.126Z,15.50
2022-08-20T21:47:24.071Z,15.48
2022-08-20T21:49:50.788Z,15.64
2022-08-20T21:52:17.520Z,15.59
2022-08-20T21:54:44.423Z,15.62
2022-08-20T21:57:21.165Z,15.48
2022-08-20T21:59:49.587Z,15.50
2022-08-20T22:02:17.603Z,15.50
2022-08-20T22:04:44.369Z,15.42
2022-08-20T22:07:12.024Z,15.38
2022-08-20T22:09:38.972Z,15.41
2022-08-20T22:12:13.318Z,15.46
2022-08-20T22:14:40.090Z,15.37
2022-08-20T22:17:06.790Z,15.41
2022-08-20T22:19:33.711Z,15.39
2022-08-20T22:22:00.354Z,15.48
2022-08-20T22:24:29.164Z,15.31
2022-08-20T22:26:56.017Z,15.32
2022-08-20T22:29:23.148Z,15.34
2022-08-20T22:31:49.846Z,15.27
2022-08-20T22:34:19.389Z,15.30
2022-08-20T22:36:46.529Z,15.32
2022-08-20T22:39:13.782Z,15.30
2022-08-20T22:41:40.794Z,15.31
2022-08-20T22:44:07.610Z,15.38
2022-08-20T22:46:38.165Z,15.31
2022-08-20T22:49:09.268Z,15.32
2022-08-20T22:51:38.696Z,15.38
2022-08-20T22:54:08.987Z,15.21
2022-08-20T22:56:35.732Z,15.29
2022-08-20T22:59:03.270Z,15.34
2022-08-20T23:01:30.392Z,15.26
2022-08-20T23:04:02.964Z,15.21
2022-08-20T23:06:31.369Z,15.37
2022-08-20T23:08:58.168Z,15.44
2022-08-20T23:11:25.973Z,15.21
2022-08-20T23:13:52.629Z,15.41
2022-08-20T23:16:19.341Z,15.31
2022-08-20T23:18:46.013Z,15.21
2022-08-20T23:21:12.730Z,15.41
2022-08-20T23:23:39.463Z,15.38
2022-08-20T23:26:06.842Z,15.38
2022-08-20T23:28:33.829Z,15.27
2022-08-20T23:31:00.616Z,15.25
2022-08-20T23:33:27.260Z,15.21
2022-08-20T23:35:54.022Z,15.30
2022-08-20T23:38:21.090Z,15.15
2022-08-20T23:40:47.819Z,15.16
2022-08-20T23:43:14.460Z,15.28
2022-08-20T23:45:41.939Z,15.26
2022-08-20T23:48:09.122Z,15.27
2022-08-20T23:50:37.117Z,15.30
2022-08-20T23:53:04.208Z,15.28
2022-08-20T23:55:31.255Z,15.17
2022-08-20T23:57:58.015Z,15.23
